sensor_id;sensor_type;location;lat;lon;timestamp;P1;durP1;ratioP1;P2;durP2;ratioP2
12635;SDS011;6383;50.830;7.210;2023-01-13T00:00:37;0.40;;;0.38;;
12635;SDS011;6383;50.830;7.210;2023-01-13T00:03:06;0.20;;;0.20;;
12635;SDS011;6383;50.830;7.210;2023-01-13T00:05:34;2.35;;;0.20;;
12635;SDS011;6383;50.830;7.210;2023-01-13T00:08:03;0.25;;;0.25;;
12635;SDS011;6383;50.830;7.210;2023-01-13T00:10:32;0.20;;;0.20;;
12635;SDS011;6383;50.830;7.210;2023-01-13T00:13:03;1.27;;;0.40;;
12635;SDS011;6383;50.830;7.210;2023-01-13T00:15:33;0.20;;;0.20;;
12635;SDS011;6383;50.830;7.210;2023-01-13T00:18:02;0.85;;;0.20;;
12635;SDS011;6383;50.830;7.210;2023-01-13T00:20:30;0.75;;;0.20;;
12635;SDS011;6383;50.830;7.210;2023-01-13T00:22:59;0.25;;;0.22;;
12635;SDS011;6383;50.830;7.210;2023-01-13T00:25:29;0.10;;;0.10;;
12635;SDS011;6383;50.830;7.210;2023-01-13T00:27:59;0.32;;;0.32;;
12635;SDS011;6383;50.830;7.210;2023-01-13T00:30:28;2.03;;;0.30;;
12635;SDS011;6383;50.830;7.210;2023-01-13T00:32:56;0.20;;;0.15;;
12635;SDS011;6383;50.830;7.210;2023-01-13T00:35:23;0.30;;;0.30;;
12635;SDS011;6383;50.830;7.210;2023-01-13T00:37:52;0.10;;;0.10;;
12635;SDS011;6383;50.830;7.210;2023-01-13T00:40:20;0.10;;;0.10;;
12635;SDS011;6383;50.830;7.210;2023-01-13T00:42:48;0.45;;;0.20;;
12635;SDS011;6383;50.830;7.210;2023-01-13T00:45:35;0.20;;;0.20;;
12635;SDS011;6383;50.830;7.210;2023-01-13T00:48:06;0.20;;;0.20;;
12635;SDS011;6383;50.830;7.210;2023-01-13T00:50:34;0.10;;;0.10;;
12635;SDS011;6383;50.830;7.210;2023-01-13T00:53:02;0.22;;;0.20;;
12635;SDS011;6383;50.830;7.210;2023-01-13T00:55:30;0.20;;;0.20;;
12635;SDS011;6383;50.830;7.210;2023-01-13T00:57:58;1.77;;;0.13;;
12635;SDS011;6383;50.830;7.210;2023-01-13T01:00:30;0.32;;;0.30;;
12635;SDS011;6383;50.830;7.210;2023-01-13T01:03:01;1.45;;;0.15;;
12635;SDS011;6383;50.830;7.210;2023-01-13T01:05:32;0.20;;;0.20;;
12635;SDS011;6383;50.830;7.210;2023-01-13T01:08:00;0.30;;;0.30;;
12635;SDS011;6383;50.830;7.210;2023-01-13T01:10:28;0.20;;;0.20;;
12635;SDS011;6383;50.830;7.210;2023-01-13T01:12:56;2.78;;;0.60;;
12635;SDS011;6383;50.830;7.210;2023-01-13T01:15:24;7.07;;;0.80;;
12635;SDS011;6383;50.830;7.210;2023-01-13T01:17:52;4.68;;;0.40;;
12635;SDS011;6383;50.830;7.210;2023-01-13T01:20:22;0.57;;;0.25;;
12635;SDS011;6383;50.830;7.210;2023-01-13T01:22:50;1.15;;;0.30;;
12635;SDS011;6383;50.830;7.210;2023-01-13T01:25:17;1.58;;;0.50;;
12635;SDS011;6383;50.830;7.210;2023-01-13T01:27:46;1.27;;;0.17;;
12635;SDS011;6383;50.830;7.210;2023-01-13T01:30:15;2.00;;;1.45;;
12635;SDS011;6383;50.830;7.210;2023-01-13T01:32:44;3.38;;;1.70;;
12635;SDS011;6383;50.830;7.210;2023-01-13T01:35:13;3.55;;;0.50;;
12635;SDS011;6383;50.830;7.210;2023-01-13T01:37:42;0.57;;;0.40;;
12635;SDS011;6383;50.830;7.210;2023-01-13T01:40:11;0.52;;;0.40;;
12635;SDS011;6383;50.830;7.210;2023-01-13T01:42:39;1.98;;;0.25;;
12635;SDS011;6383;50.830;7.210;2023-01-13T01:45:26;3.65;;;0.52;;
12635;SDS011;6383;50.830;7.210;2023-01-13T01:47:58;0.70;;;0.40;;
12635;SDS011;6383;50.830;7.210;2023-01-13T01:50:29;1.08;;;0.45;;
12635;SDS011;6383;50.830;7.210;2023-01-13T01:53:02;2.92;;;0.75;;
12635;SDS011;6383;50.830;7.210;2023-01-13T01:55:34;1.90;;;0.60;;
12635;SDS011;6383;50.830;7.210;2023-01-13T01:58:05;4.95;;;0.75;;
12635;SDS011;6383;50.830;7.210;2023-01-13T02:00:37;2.58;;;0.55;;
12635;SDS011;6383;50.830;7.210;2023-01-13T02:03:06;3.67;;;0.65;;
12635;SDS011;6383;50.830;7.210;2023-01-13T02:05:37;3.33;;;0.90;;
12635;SDS011;6383;50.830;7.210;2023-01-13T02:08:08;2.00;;;0.60;;
12635;SDS011;6383;50.830;7.210;2023-01-13T02:10:40;5.10;;;1.00;;
12635;SDS011;6383;50.830;7.210;2023-01-13T02:13:11;3.13;;;1.20;;
12635;SDS011;6383;50.830;7.210;2023-01-13T02:15:41;7.90;;;1.10;;
12635;SDS011;6383;50.830;7.210;2023-01-13T02:18:24;3.88;;;0.85;;
12635;SDS011;6383;50.830;7.210;2023-01-13T02:21:08;7.45;;;1.67;;
12635;SDS011;6383;50.830;7.210;2023-01-13T02:24:04;5.93;;;1.00;;
12635;SDS011;6383;50.830;7.210;2023-01-13T02:27:28;2.28;;;0.80;;
12635;SDS011;6383;50.830;7.210;2023-01-13T02:30:09;3.35;;;0.80;;
12635;SDS011;6383;50.830;7.210;2023-01-13T02:35:59;4.45;;;1.00;;
12635;SDS011;6383;50.830;7.210;2023-01-13T02:38:33;3.65;;;0.77;;
12635;SDS011;6383;50.830;7.210;2023-01-13T02:41:04;2.92;;;0.73;;
12635;SDS011;6383;50.830;7.210;2023-01-13T02:43:55;2.78;;;0.68;;
12635;SDS011;6383;50.830;7.210;2023-01-13T02:46:38;4.30;;;0.95;;
12635;SDS011;6383;50.830;7.210;2023-01-13T02:49:16;2.15;;;0.70;;
12635;SDS011;6383;50.830;7.210;2023-01-13T02:51:51;1.98;;;0.80;;
12635;SDS011;6383;50.830;7.210;2023-01-13T02:54:24;2.10;;;0.52;;
12635;SDS011;6383;50.830;7.210;2023-01-13T02:56:55;5.82;;;0.95;;
12635;SDS011;6383;50.830;7.210;2023-01-13T02:59:27;5.63;;;1.13;;
12635;SDS011;6383;50.830;7.210;2023-01-13T03:01:59;1.00;;;0.52;;
12635;SDS011;6383;50.830;7.210;2023-01-13T03:04:46;2.28;;;0.85;;
12635;SDS011;6383;50.830;7.210;2023-01-13T03:07:26;6.28;;;0.50;;
12635;SDS011;6383;50.830;7.210;2023-01-13T03:10:26;0.35;;;0.30;;
12635;SDS011;6383;50.830;7.210;2023-01-13T03:13:04;2.70;;;0.60;;
12635;SDS011;6383;50.830;7.210;2023-01-13T03:15:43;2.53;;;0.80;;
12635;SDS011;6383;50.830;7.210;2023-01-13T03:18:24;1.52;;;0.57;;
12635;SDS011;6383;50.830;7.210;2023-01-13T03:21:04;3.47;;;0.50;;
12635;SDS011;6383;50.830;7.210;2023-01-13T03:23:40;1.45;;;0.52;;
12635;SDS011;6383;50.830;7.210;2023-01-13T03:26:18;2.28;;;0.95;;
12635;SDS011;6383;50.830;7.210;2023-01-13T03:28:54;2.17;;;1.95;;
12635;SDS011;6383;50.830;7.210;2023-01-13T03:31:30;3.20;;;2.72;;
12635;SDS011;6383;50.830;7.210;2023-01-13T03:34:03;0.88;;;0.40;;
12635;SDS011;6383;50.830;7.210;2023-01-13T03:36:37;1.48;;;0.52;;
12635;SDS011;6383;50.830;7.210;2023-01-13T03:39:08;1.77;;;0.50;;
12635;SDS011;6383;50.830;7.210;2023-01-13T03:41:40;2.65;;;0.57;;
12635;SDS011;6383;50.830;7.210;2023-01-13T03:44:13;3.10;;;0.60;;
12635;SDS011;6383;50.830;7.210;2023-01-13T03:46:52;1.40;;;0.57;;
12635;SDS011;6383;50.830;7.210;2023-01-13T03:49:31;3.72;;;0.70;;
12635;SDS011;6383;50.830;7.210;2023-01-13T03:52:06;4.60;;;0.70;;
12635;SDS011;6383;50.830;7.210;2023-01-13T03:54:42;1.38;;;0.60;;
12635;SDS011;6383;50.830;7.210;2023-01-13T03:57:16;4.15;;;0.75;;
12635;SDS011;6383;50.830;7.210;2023-01-13T03:59:51;3.63;;;0.90;;
12635;SDS011;6383;50.830;7.210;2023-01-13T04:02:27;3.35;;;0.77;;
12635;SDS011;6383;50.830;7.210;2023-01-13T04:05:05;6.90;;;1.30;;
12635;SDS011;6383;50.830;7.210;2023-01-13T04:07:39;2.63;;;0.88;;
12635;SDS011;6383;50.830;7.210;2023-01-13T04:10:16;6.22;;;1.13;;
12635;SDS011;6383;50.830;7.210;2023-01-13T04:12:47;5.15;;;1.20;;
12635;SDS011;6383;50.830;7.210;2023-01-13T04:15:28;5.45;;;1.00;;
12635;SDS011;6383;50.830;7.210;2023-01-13T04:18:08;5.72;;;1.00;;
12635;SDS011;6383;50.830;7.210;2023-01-13T04:20:46;5.07;;;1.00;;
12635;SDS011;6383;50.830;7.210;2023-01-13T04:23:17;6.80;;;0.73;;
12635;SDS011;6383;50.830;7.210;2023-01-13T04:25:46;3.03;;;1.38;;
12635;SDS011;6383;50.830;7.210;2023-01-13T04:28:15;4.40;;;1.05;;
12635;SDS011;6383;50.830;7.210;2023-01-13T04:30:43;8.23;;;1.60;;
12635;SDS011;6383;50.830;7.210;2023-01-13T04:33:13;7.93;;;1.48;;
12635;SDS011;6383;50.830;7.210;2023-01-13T04:35:45;7.63;;;1.08;;
12635;SDS011;6383;50.830;7.210;2023-01-13T04:38:16;4.32;;;1.30;;
12635;SDS011;6383;50.830;7.210;2023-01-13T04:40:45;9.20;;;1.50;;
12635;SDS011;6383;50.830;7.210;2023-01-13T04:43:13;6.50;;;1.33;;
12635;SDS011;6383;50.830;7.210;2023-01-13T04:45:41;6.32;;;1.75;;
12635;SDS011;6383;50.830;7.210;2023-01-13T04:48:11;16.45;;;6.05;;
12635;SDS011;6383;50.830;7.210;2023-01-13T04:50:39;12.57;;;3.42;;
12635;SDS011;6383;50.830;7.210;2023-01-13T04:53:08;10.45;;;2.65;;
12635;SDS011;6383;50.830;7.210;2023-01-13T04:55:39;13.45;;;2.47;;
12635;SDS011;6383;50.830;7.210;2023-01-13T04:58:11;12.48;;;2.00;;
12635;SDS011;6383;50.830;7.210;2023-01-13T05:00:39;14.05;;;2.08;;
12635;SDS011;6383;50.830;7.210;2023-01-13T05:03:07;12.35;;;2.28;;
12635;SDS011;6383;50.830;7.210;2023-01-13T05:05:35;10.95;;;2.35;;
12635;SDS011;6383;50.830;7.210;2023-01-13T05:08:03;13.18;;;2.25;;
12635;SDS011;6383;50.830;7.210;2023-01-13T05:10:32;14.57;;;2.33;;
12635;SDS011;6383;50.830;7.210;2023-01-13T05:13:01;11.25;;;2.08;;
12635;SDS011;6383;50.830;7.210;2023-01-13T05:15:59;16.83;;;3.10;;
12635;SDS011;6383;50.830;7.210;2023-01-13T05:18:45;12.38;;;2.60;;
12635;SDS011;6383;50.830;7.210;2023-01-13T05:21:13;17.40;;;2.10;;
12635;SDS011;6383;50.830;7.210;2023-01-13T05:23:56;14.85;;;2.00;;
12635;SDS011;6383;50.830;7.210;2023-01-13T05:26:43;17.50;;;2.60;;
12635;SDS011;6383;50.830;7.210;2023-01-13T05:29:12;8.85;;;2.13;;
12635;SDS011;6383;50.830;7.210;2023-01-13T05:31:41;13.45;;;2.00;;
12635;SDS011;6383;50.830;7.210;2023-01-13T05:34:10;15.38;;;3.53;;
12635;SDS011;6383;50.830;7.210;2023-01-13T05:36:40;17.05;;;3.25;;
12635;SDS011;6383;50.830;7.210;2023-01-13T05:39:10;17.67;;;3.05;;
12635;SDS011;6383;50.830;7.210;2023-01-13T05:41:37;15.55;;;2.42;;
12635;SDS011;6383;50.830;7.210;2023-01-13T05:44:24;9.68;;;1.92;;
12635;SDS011;6383;50.830;7.210;2023-01-13T05:46:51;12.20;;;2.30;;
12635;SDS011;6383;50.830;7.210;2023-01-13T05:49:21;16.55;;;2.50;;
12635;SDS011;6383;50.830;7.210;2023-01-13T05:51:49;12.85;;;2.40;;
12635;SDS011;6383;50.830;7.210;2023-01-13T05:54:18;11.80;;;2.45;;
12635;SDS011;6383;50.830;7.210;2023-01-13T05:56:48;12.77;;;2.08;;
12635;SDS011;6383;50.830;7.210;2023-01-13T05:59:17;9.27;;;2.05;;
12635;SDS011;6383;50.830;7.210;2023-01-13T06:01:48;15.55;;;2.30;;
12635;SDS011;6383;50.830;7.210;2023-01-13T06:04:18;15.05;;;2.40;;
12635;SDS011;6383;50.830;7.210;2023-01-13T06:06:47;11.23;;;3.28;;
12635;SDS011;6383;50.830;7.210;2023-01-13T06:09:15;12.23;;;2.13;;
12635;SDS011;6383;50.830;7.210;2023-01-13T06:11:44;15.10;;;2.30;;
12635;SDS011;6383;50.830;7.210;2023-01-13T06:14:13;9.68;;;1.70;;
12635;SDS011;6383;50.830;7.210;2023-01-13T06:16:42;14.57;;;2.45;;
12635;SDS011;6383;50.830;7.210;2023-01-13T06:19:13;10.23;;;1.80;;
12635;SDS011;6383;50.830;7.210;2023-01-13T06:21:41;9.50;;;2.10;;
12635;SDS011;6383;50.830;7.210;2023-01-13T06:24:11;11.10;;;2.00;;
12635;SDS011;6383;50.830;7.210;2023-01-13T06:26:40;10.00;;;2.80;;
12635;SDS011;6383;50.830;7.210;2023-01-13T06:29:10;8.25;;;1.52;;
12635;SDS011;6383;50.830;7.210;2023-01-13T06:31:41;14.23;;;2.38;;
12635;SDS011;6383;50.830;7.210;2023-01-13T06:34:11;11.20;;;2.17;;
12635;SDS011;6383;50.830;7.210;2023-01-13T06:36:43;7.15;;;2.13;;
12635;SDS011;6383;50.830;7.210;2023-01-13T06:39:17;10.63;;;1.83;;
12635;SDS011;6383;50.830;7.210;2023-01-13T06:41:49;10.13;;;2.60;;
12635;SDS011;6383;50.830;7.210;2023-01-13T06:44:38;9.43;;;1.80;;
12635;SDS011;6383;50.830;7.210;2023-01-13T06:47:08;7.13;;;1.80;;
12635;SDS011;6383;50.830;7.210;2023-01-13T06:49:39;11.95;;;1.90;;
12635;SDS011;6383;50.830;7.210;2023-01-13T06:52:08;13.40;;;2.15;;
12635;SDS011;6383;50.830;7.210;2023-01-13T06:54:36;11.75;;;1.92;;
12635;SDS011;6383;50.830;7.210;2023-01-13T06:57:04;9.07;;;4.25;;
12635;SDS011;6383;50.830;7.210;2023-01-13T06:59:35;14.00;;;4.35;;
12635;SDS011;6383;50.830;7.210;2023-01-13T07:02:04;8.75;;;2.83;;
12635;SDS011;6383;50.830;7.210;2023-01-13T07:04:33;12.05;;;2.67;;
12635;SDS011;6383;50.830;7.210;2023-01-13T07:07:02;8.68;;;3.17;;
12635;SDS011;6383;50.830;7.210;2023-01-13T07:09:30;10.35;;;2.20;;
12635;SDS011;6383;50.830;7.210;2023-01-13T07:12:00;12.23;;;2.42;;
12635;SDS011;6383;50.830;7.210;2023-01-13T07:14:29;13.20;;;2.25;;
12635;SDS011;6383;50.830;7.210;2023-01-13T07:19:50;9.45;;;1.90;;
12635;SDS011;6383;50.830;7.210;2023-01-13T07:22:23;7.43;;;1.52;;
12635;SDS011;6383;50.830;7.210;2023-01-13T07:24:51;10.50;;;2.10;;
12635;SDS011;6383;50.830;7.210;2023-01-13T07:27:19;7.35;;;1.63;;
12635;SDS011;6383;50.830;7.210;2023-01-13T07:29:49;10.00;;;1.80;;
12635;SDS011;6383;50.830;7.210;2023-01-13T07:32:18;4.18;;;1.20;;
12635;SDS011;6383;50.830;7.210;2023-01-13T07:34:47;8.65;;;1.80;;
12635;SDS011;6383;50.830;7.210;2023-01-13T07:37:16;5.80;;;1.08;;
12635;SDS011;6383;50.830;7.210;2023-01-13T07:39:47;8.00;;;1.45;;
12635;SDS011;6383;50.830;7.210;2023-01-13T07:42:16;5.90;;;1.15;;
12635;SDS011;6383;50.830;7.210;2023-01-13T07:45:01;5.30;;;1.75;;
12635;SDS011;6383;50.830;7.210;2023-01-13T07:47:30;2.58;;;0.90;;
12635;SDS011;6383;50.830;7.210;2023-01-13T07:49:58;5.10;;;1.20;;
12635;SDS011;6383;50.830;7.210;2023-01-13T07:52:26;5.65;;;1.38;;
12635;SDS011;6383;50.830;7.210;2023-01-13T07:54:56;3.47;;;1.13;;
12635;SDS011;6383;50.830;7.210;2023-01-13T07:57:24;2.22;;;1.25;;
12635;SDS011;6383;50.830;7.210;2023-01-13T07:59:52;9.13;;;1.20;;
12635;SDS011;6383;50.830;7.210;2023-01-13T08:02:21;3.33;;;0.90;;
12635;SDS011;6383;50.830;7.210;2023-01-13T08:04:52;3.47;;;0.90;;
12635;SDS011;6383;50.830;7.210;2023-01-13T08:07:23;4.80;;;0.98;;
12635;SDS011;6383;50.830;7.210;2023-01-13T08:09:52;5.68;;;1.42;;
12635;SDS011;6383;50.830;7.210;2023-01-13T08:12:27;4.30;;;1.30;;
12635;SDS011;6383;50.830;7.210;2023-01-13T08:15:13;4.10;;;1.17;;
12635;SDS011;6383;50.830;7.210;2023-01-13T08:17:41;6.78;;;1.20;;
12635;SDS011;6383;50.830;7.210;2023-01-13T08:20:10;6.97;;;1.17;;
12635;SDS011;6383;50.830;7.210;2023-01-13T08:22:39;5.18;;;1.10;;
12635;SDS011;6383;50.830;7.210;2023-01-13T08:25:08;4.60;;;1.33;;
12635;SDS011;6383;50.830;7.210;2023-01-13T08:27:37;5.15;;;1.40;;
12635;SDS011;6383;50.830;7.210;2023-01-13T08:30:06;4.10;;;1.25;;
12635;SDS011;6383;50.830;7.210;2023-01-13T08:32:36;6.60;;;1.20;;
12635;SDS011;6383;50.830;7.210;2023-01-13T08:35:04;4.38;;;1.15;;
12635;SDS011;6383;50.830;7.210;2023-01-13T08:37:34;3.22;;;0.90;;
12635;SDS011;6383;50.830;7.210;2023-01-13T08:40:01;4.15;;;1.13;;
12635;SDS011;6383;50.830;7.210;2023-01-13T08:42:30;4.28;;;1.00;;
12635;SDS011;6383;50.830;7.210;2023-01-13T08:45:01;4.82;;;1.13;;
12635;SDS011;6383;50.830;7.210;2023-01-13T08:47:31;4.00;;;0.90;;
12635;SDS011;6383;50.830;7.210;2023-01-13T08:50:00;6.70;;;1.23;;
12635;SDS011;6383;50.830;7.210;2023-01-13T08:52:28;1.50;;;0.70;;
12635;SDS011;6383;50.830;7.210;2023-01-13T08:54:57;5.13;;;1.15;;
12635;SDS011;6383;50.830;7.210;2023-01-13T08:57:25;5.95;;;1.83;;
12635;SDS011;6383;50.830;7.210;2023-01-13T08:59:53;5.35;;;1.33;;
12635;SDS011;6383;50.830;7.210;2023-01-13T09:02:22;8.30;;;1.30;;
12635;SDS011;6383;50.830;7.210;2023-01-13T09:04:52;8.73;;;2.08;;
12635;SDS011;6383;50.830;7.210;2023-01-13T09:07:21;5.95;;;1.63;;
12635;SDS011;6383;50.830;7.210;2023-01-13T09:09:50;6.25;;;1.45;;
12635;SDS011;6383;50.830;7.210;2023-01-13T09:12:19;10.68;;;1.50;;
12635;SDS011;6383;50.830;7.210;2023-01-13T09:15:05;8.82;;;1.80;;
12635;SDS011;6383;50.830;7.210;2023-01-13T09:17:34;6.03;;;1.40;;
12635;SDS011;6383;50.830;7.210;2023-01-13T09:20:04;11.25;;;2.05;;
12635;SDS011;6383;50.830;7.210;2023-01-13T09:22:32;12.50;;;2.00;;
12635;SDS011;6383;50.830;7.210;2023-01-13T09:25:03;15.63;;;2.78;;
12635;SDS011;6383;50.830;7.210;2023-01-13T09:27:32;13.63;;;2.65;;
12635;SDS011;6383;50.830;7.210;2023-01-13T09:30:00;17.38;;;3.40;;
12635;SDS011;6383;50.830;7.210;2023-01-13T09:32:28;16.55;;;3.33;;
12635;SDS011;6383;50.830;7.210;2023-01-13T09:34:58;21.38;;;2.60;;
12635;SDS011;6383;50.830;7.210;2023-01-13T09:37:27;17.45;;;3.03;;
12635;SDS011;6383;50.830;7.210;2023-01-13T09:39:56;7.13;;;1.92;;
12635;SDS011;6383;50.830;7.210;2023-01-13T09:42:29;13.40;;;3.58;;
12635;SDS011;6383;50.830;7.210;2023-01-13T09:45:20;15.03;;;2.63;;
12635;SDS011;6383;50.830;7.210;2023-01-13T09:47:53;13.93;;;2.85;;
12635;SDS011;6383;50.830;7.210;2023-01-13T09:50:32;11.50;;;2.65;;
12635;SDS011;6383;50.830;7.210;2023-01-13T09:53:12;13.02;;;2.92;;
12635;SDS011;6383;50.830;7.210;2023-01-13T09:55:45;13.68;;;3.17;;
12635;SDS011;6383;50.830;7.210;2023-01-13T09:58:14;13.60;;;3.17;;
12635;SDS011;6383;50.830;7.210;2023-01-13T10:00:47;8.15;;;2.63;;
12635;SDS011;6383;50.830;7.210;2023-01-13T10:03:26;12.98;;;2.40;;
12635;SDS011;6383;50.830;7.210;2023-01-13T10:05:59;9.48;;;2.30;;
12635;SDS011;6383;50.830;7.210;2023-01-13T10:08:32;11.18;;;2.55;;
12635;SDS011;6383;50.830;7.210;2023-01-13T10:11:03;10.95;;;2.70;;
12635;SDS011;6383;50.830;7.210;2023-01-13T10:14:00;12.32;;;3.25;;
12635;SDS011;6383;50.830;7.210;2023-01-13T10:16:30;9.02;;;3.05;;
12635;SDS011;6383;50.830;7.210;2023-01-13T10:19:11;17.55;;;2.78;;
12635;SDS011;6383;50.830;7.210;2023-01-13T10:21:51;13.57;;;2.65;;
12635;SDS011;6383;50.830;7.210;2023-01-13T10:24:38;10.30;;;2.13;;
12635;SDS011;6383;50.830;7.210;2023-01-13T10:27:22;10.00;;;2.58;;
12635;SDS011;6383;50.830;7.210;2023-01-13T10:29:55;16.40;;;2.97;;
12635;SDS011;6383;50.830;7.210;2023-01-13T10:32:23;12.90;;;2.38;;
12635;SDS011;6383;50.830;7.210;2023-01-13T10:34:52;13.93;;;3.08;;
12635;SDS011;6383;50.830;7.210;2023-01-13T10:37:26;12.57;;;3.38;;
12635;SDS011;6383;50.830;7.210;2023-01-13T10:39:55;13.52;;;2.50;;
12635;SDS011;6383;50.830;7.210;2023-01-13T10:42:28;13.25;;;3.05;;
12635;SDS011;6383;50.830;7.210;2023-01-13T10:44:57;12.63;;;2.97;;
12635;SDS011;6383;50.830;7.210;2023-01-13T10:47:27;14.88;;;2.90;;
12635;SDS011;6383;50.830;7.210;2023-01-13T10:49:59;11.82;;;2.50;;
12635;SDS011;6383;50.830;7.210;2023-01-13T10:52:34;16.70;;;2.67;;
12635;SDS011;6383;50.830;7.210;2023-01-13T10:55:13;20.02;;;3.25;;
12635;SDS011;6383;50.830;7.210;2023-01-13T10:57:53;13.40;;;2.50;;
12635;SDS011;6383;50.830;7.210;2023-01-13T11:00:26;13.70;;;2.17;;
12635;SDS011;6383;50.830;7.210;2023-01-13T11:03:12;20.13;;;3.17;;
12635;SDS011;6383;50.830;7.210;2023-01-13T11:05:49;15.82;;;3.05;;
12635;SDS011;6383;50.830;7.210;2023-01-13T11:08:22;21.50;;;4.13;;
12635;SDS011;6383;50.830;7.210;2023-01-13T11:10:54;15.45;;;3.22;;
12635;SDS011;6383;50.830;7.210;2023-01-13T11:13:27;19.23;;;3.25;;
12635;SDS011;6383;50.830;7.210;2023-01-13T11:15:59;17.10;;;3.90;;
12635;SDS011;6383;50.830;7.210;2023-01-13T11:18:35;16.35;;;3.45;;
12635;SDS011;6383;50.830;7.210;2023-01-13T11:21:10;14.43;;;3.05;;
12635;SDS011;6383;50.830;7.210;2023-01-13T11:23:52;12.98;;;2.97;;
12635;SDS011;6383;50.830;7.210;2023-01-13T11:26:31;19.38;;;3.33;;
12635;SDS011;6383;50.830;7.210;2023-01-13T11:29:11;14.30;;;2.88;;
12635;SDS011;6383;50.830;7.210;2023-01-13T11:31:45;15.88;;;3.30;;
12635;SDS011;6383;50.830;7.210;2023-01-13T11:34:20;16.27;;;3.28;;
12635;SDS011;6383;50.830;7.210;2023-01-13T11:36:54;20.30;;;3.88;;
12635;SDS011;6383;50.830;7.210;2023-01-13T11:39:27;12.38;;;3.53;;
12635;SDS011;6383;50.830;7.210;2023-01-13T11:42:08;17.45;;;3.33;;
12635;SDS011;6383;50.830;7.210;2023-01-13T11:44:54;15.30;;;3.63;;
12635;SDS011;6383;50.830;7.210;2023-01-13T11:47:30;19.88;;;3.00;;
12635;SDS011;6383;50.830;7.210;2023-01-13T11:50:01;14.35;;;3.08;;
12635;SDS011;6383;50.830;7.210;2023-01-13T11:52:32;13.27;;;3.40;;
12635;SDS011;6383;50.830;7.210;2023-01-13T11:55:21;14.77;;;2.60;;
12635;SDS011;6383;50.830;7.210;2023-01-13T11:58:04;14.98;;;2.65;;
12635;SDS011;6383;50.830;7.210;2023-01-13T12:00:59;20.48;;;3.50;;
12635;SDS011;6383;50.830;7.210;2023-01-13T12:03:35;14.25;;;2.80;;
12635;SDS011;6383;50.830;7.210;2023-01-13T12:06:15;17.73;;;3.53;;
12635;SDS011;6383;50.830;7.210;2023-01-13T12:08:54;14.73;;;3.13;;
12635;SDS011;6383;50.830;7.210;2023-01-13T12:11:45;17.75;;;3.47;;
12635;SDS011;6383;50.830;7.210;2023-01-13T12:14:44;14.35;;;2.95;;
12635;SDS011;6383;50.830;7.210;2023-01-13T12:17:29;22.15;;;3.63;;
12635;SDS011;6383;50.830;7.210;2023-01-13T12:20:11;17.10;;;3.55;;
12635;SDS011;6383;50.830;7.210;2023-01-13T12:22:51;8.25;;;1.95;;
12635;SDS011;6383;50.830;7.210;2023-01-13T12:25:26;7.63;;;2.17;;
12635;SDS011;6383;50.830;7.210;2023-01-13T12:28:02;10.15;;;2.10;;
12635;SDS011;6383;50.830;7.210;2023-01-13T12:30:35;14.05;;;1.70;;
12635;SDS011;6383;50.830;7.210;2023-01-13T12:33:12;9.50;;;2.35;;
12635;SDS011;6383;50.830;7.210;2023-01-13T12:35:48;9.98;;;2.35;;
12635;SDS011;6383;50.830;7.210;2023-01-13T12:38:28;13.35;;;2.88;;
12635;SDS011;6383;50.830;7.210;2023-01-13T12:41:06;15.73;;;2.42;;
12635;SDS011;6383;50.830;7.210;2023-01-13T12:43:45;9.63;;;2.50;;
12635;SDS011;6383;50.830;7.210;2023-01-13T12:46:34;12.10;;;2.97;;
12635;SDS011;6383;50.830;7.210;2023-01-13T12:49:24;9.95;;;2.38;;
12635;SDS011;6383;50.830;7.210;2023-01-13T12:52:14;10.88;;;2.17;;
12635;SDS011;6383;50.830;7.210;2023-01-13T12:57:40;12.77;;;2.75;;
12635;SDS011;6383;50.830;7.210;2023-01-13T13:00:50;16.33;;;2.63;;
12635;SDS011;6383;50.830;7.210;2023-01-13T13:03:28;15.70;;;3.60;;
12635;SDS011;6383;50.830;7.210;2023-01-13T13:06:07;11.13;;;2.83;;
12635;SDS011;6383;50.830;7.210;2023-01-13T13:08:55;15.07;;;3.13;;
12635;SDS011;6383;50.830;7.210;2023-01-13T13:11:40;6.33;;;2.23;;
12635;SDS011;6383;50.830;7.210;2023-01-13T13:20:59;19.45;;;3.05;;
12635;SDS011;6383;50.830;7.210;2023-01-13T13:23:36;16.17;;;3.33;;
12635;SDS011;6383;50.830;7.210;2023-01-13T13:26:14;16.65;;;3.33;;
12635;SDS011;6383;50.830;7.210;2023-01-13T13:28:55;11.90;;;2.67;;
12635;SDS011;6383;50.830;7.210;2023-01-13T13:31:48;12.45;;;2.25;;
12635;SDS011;6383;50.830;7.210;2023-01-13T13:34:35;15.43;;;3.97;;
12635;SDS011;6383;50.830;7.210;2023-01-13T13:37:15;13.48;;;3.88;;
12635;SDS011;6383;50.830;7.210;2023-01-13T13:40:21;15.85;;;3.60;;
12635;SDS011;6383;50.830;7.210;2023-01-13T13:43:09;17.63;;;3.20;;
12635;SDS011;6383;50.830;7.210;2023-01-13T13:45:56;13.55;;;2.70;;
12635;SDS011;6383;50.830;7.210;2023-01-13T13:48:49;14.63;;;2.85;;
12635;SDS011;6383;50.830;7.210;2023-01-13T13:51:24;12.77;;;2.83;;
12635;SDS011;6383;50.830;7.210;2023-01-13T13:53:56;10.65;;;3.05;;
12635;SDS011;6383;50.830;7.210;2023-01-13T13:56:28;10.95;;;2.95;;
12635;SDS011;6383;50.830;7.210;2023-01-13T13:59:02;20.02;;;4.07;;
12635;SDS011;6383;50.830;7.210;2023-01-13T14:01:31;17.20;;;3.65;;
12635;SDS011;6383;50.830;7.210;2023-01-13T14:04:06;16.98;;;3.63;;
12635;SDS011;6383;50.830;7.210;2023-01-13T14:06:49;16.17;;;3.67;;
12635;SDS011;6383;50.830;7.210;2023-01-13T14:09:21;19.55;;;3.80;;
12635;SDS011;6383;50.830;7.210;2023-01-13T14:11:55;21.52;;;3.67;;
12635;SDS011;6383;50.830;7.210;2023-01-13T14:14:25;17.20;;;3.70;;
12635;SDS011;6383;50.830;7.210;2023-01-13T14:16:55;24.85;;;3.75;;
12635;SDS011;6383;50.830;7.210;2023-01-13T14:19:27;19.88;;;3.90;;
12635;SDS011;6383;50.830;7.210;2023-01-13T14:21:59;24.63;;;3.70;;
12635;SDS011;6383;50.830;7.210;2023-01-13T14:24:28;20.40;;;3.83;;
12635;SDS011;6383;50.830;7.210;2023-01-13T14:27:08;25.33;;;3.72;;
12635;SDS011;6383;50.830;7.210;2023-01-13T14:29:38;18.60;;;3.00;;
12635;SDS011;6383;50.830;7.210;2023-01-13T14:32:06;21.08;;;4.15;;
12635;SDS011;6383;50.830;7.210;2023-01-13T14:34:34;10.27;;;2.22;;
12635;SDS011;6383;50.830;7.210;2023-01-13T14:37:17;14.38;;;2.85;;
12635;SDS011;6383;50.830;7.210;2023-01-13T14:39:50;15.52;;;3.08;;
12635;SDS011;6383;50.830;7.210;2023-01-13T14:42:18;13.50;;;3.25;;
12635;SDS011;6383;50.830;7.210;2023-01-13T14:44:48;20.33;;;3.70;;
12635;SDS011;6383;50.830;7.210;2023-01-13T14:47:17;18.00;;;4.60;;
12635;SDS011;6383;50.830;7.210;2023-01-13T14:49:53;11.48;;;3.10;;
12635;SDS011;6383;50.830;7.210;2023-01-13T14:52:30;17.70;;;3.83;;
12635;SDS011;6383;50.830;7.210;2023-01-13T14:55:18;12.35;;;2.38;;
12635;SDS011;6383;50.830;7.210;2023-01-13T14:57:48;9.75;;;2.67;;
12635;SDS011;6383;50.830;7.210;2023-01-13T15:00:21;15.25;;;3.13;;
12635;SDS011;6383;50.830;7.210;2023-01-13T15:03:04;12.57;;;3.05;;
12635;SDS011;6383;50.830;7.210;2023-01-13T15:05:36;12.65;;;2.50;;
12635;SDS011;6383;50.830;7.210;2023-01-13T15:10:59;11.60;;;2.97;;
12635;SDS011;6383;50.830;7.210;2023-01-13T15:13:31;14.30;;;3.45;;
12635;SDS011;6383;50.830;7.210;2023-01-13T15:16:13;20.95;;;3.03;;
12635;SDS011;6383;50.830;7.210;2023-01-13T15:18:45;12.63;;;2.78;;
12635;SDS011;6383;50.830;7.210;2023-01-13T15:21:14;9.40;;;2.63;;
12635;SDS011;6383;50.830;7.210;2023-01-13T15:23:45;8.57;;;2.95;;
12635;SDS011;6383;50.830;7.210;2023-01-13T15:26:19;18.75;;;3.05;;
12635;SDS011;6383;50.830;7.210;2023-01-13T15:28:51;13.07;;;3.88;;
12635;SDS011;6383;50.830;7.210;2023-01-13T15:31:22;17.23;;;4.35;;
12635;SDS011;6383;50.830;7.210;2023-01-13T15:33:53;9.38;;;2.80;;
12635;SDS011;6383;50.830;7.210;2023-01-13T15:36:23;13.52;;;2.88;;
12635;SDS011;6383;50.830;7.210;2023-01-13T15:38:55;13.90;;;2.90;;
12635;SDS011;6383;50.830;7.210;2023-01-13T15:41:23;10.18;;;2.88;;
12635;SDS011;6383;50.830;7.210;2023-01-13T15:44:11;11.90;;;2.83;;
12635;SDS011;6383;50.830;7.210;2023-01-13T15:47:02;11.80;;;2.92;;
12635;SDS011;6383;50.830;7.210;2023-01-13T15:49:34;10.95;;;2.45;;
12635;SDS011;6383;50.830;7.210;2023-01-13T15:52:11;15.15;;;3.72;;
12635;SDS011;6383;50.830;7.210;2023-01-13T15:54:47;11.98;;;3.33;;